Walston, Pennsylvania
Current Conditions -  °F | °C
As of 7:53 AM on Wednesday 22 Oct 2014 (Local Time) from KDUJ Reporting Station
Overcast Overcast  
Wind Chill: 38°   Ceiling: 600
Heat Index: 44°   Visibility: 10mi
Dew Point: 41°   Wind: 13mph
Humidity: 89%   Direction: 360°N
Pressure: 30.07"   Gusts: NA
Location:  40.96°N, 78.99°W
Report Text: KDUJ 221153Z AUTO 36011KT 10SM OVC006 07/05 A3007 RMK AO2 SLP189 70068 T00670050 10083 20067 51016
Loading
Personal Weather Stations






























Interactive Weather Map
Tropical Storm Tracking
New forecast layout! Learn more

10-Day Weather Forecast

Advertisements
Track Severe Weather on mobile